sensor_id;sensor_type;location;lat;lon;timestamp;P1;durP1;ratioP1;P2;durP2;ratioP2
69951;SDS011;60406;48.408;13.392;2023-08-21T00:01:06;16.60;;;14.82;;
69951;SDS011;60406;48.408;13.392;2023-08-21T00:06:07;19.17;;;15.63;;
69951;SDS011;60406;48.408;13.392;2023-08-21T00:11:08;16.90;;;14.90;;
69951;SDS011;60406;48.408;13.392;2023-08-21T00:16:09;21.58;;;16.40;;
69951;SDS011;60406;48.408;13.392;2023-08-21T00:21:11;17.92;;;16.17;;
69951;SDS011;60406;48.408;13.392;2023-08-21T00:26:16;19.27;;;16.55;;
69951;SDS011;60406;48.408;13.392;2023-08-21T00:31:24;19.17;;;17.25;;
69951;SDS011;60406;48.408;13.392;2023-08-21T00:36:28;17.55;;;15.68;;
69951;SDS011;60406;48.408;13.392;2023-08-21T00:41:29;21.20;;;16.95;;
69951;SDS011;60406;48.408;13.392;2023-08-21T00:46:37;18.63;;;16.60;;
69951;SDS011;60406;48.408;13.392;2023-08-21T00:51:46;16.42;;;14.75;;
69951;SDS011;60406;48.408;13.392;2023-08-21T00:56:50;13.50;;;11.80;;
69951;SDS011;60406;48.408;13.392;2023-08-21T01:01:51;12.32;;;10.90;;
69951;SDS011;60406;48.408;13.392;2023-08-21T01:17:47;13.25;;;11.70;;
69951;SDS011;60406;48.408;13.392;2023-08-21T01:22:49;15.50;;;12.40;;
69951;SDS011;60406;48.408;13.392;2023-08-21T01:27:49;17.00;;;13.85;;
69951;SDS011;60406;48.408;13.392;2023-08-21T01:37:57;15.40;;;13.23;;
69951;SDS011;60406;48.408;13.392;2023-08-21T01:42:58;20.83;;;15.35;;
69951;SDS011;60406;48.408;13.392;2023-08-21T01:47:59;16.67;;;14.02;;
69951;SDS011;60406;48.408;13.392;2023-08-21T01:53:00;14.98;;;13.48;;
69951;SDS011;60406;48.408;13.392;2023-08-21T01:58:01;16.15;;;14.55;;
69951;SDS011;60406;48.408;13.392;2023-08-21T02:03:02;16.23;;;14.48;;
69951;SDS011;60406;48.408;13.392;2023-08-21T02:08:03;16.35;;;14.73;;
69951;SDS011;60406;48.408;13.392;2023-08-21T02:13:04;14.98;;;13.57;;
69951;SDS011;60406;48.408;13.392;2023-08-21T02:18:05;17.25;;;12.35;;
69951;SDS011;60406;48.408;13.392;2023-08-21T02:23:06;19.92;;;13.77;;
69951;SDS011;60406;48.408;13.392;2023-08-21T02:28:06;18.48;;;14.77;;
69951;SDS011;60406;48.408;13.392;2023-08-21T02:33:07;15.90;;;14.20;;
69951;SDS011;60406;48.408;13.392;2023-08-21T02:38:08;16.48;;;12.93;;
69951;SDS011;60406;48.408;13.392;2023-08-21T02:43:09;16.52;;;13.18;;
69951;SDS011;60406;48.408;13.392;2023-08-21T02:48:10;15.35;;;13.65;;
69951;SDS011;60406;48.408;13.392;2023-08-21T02:53:11;15.02;;;13.52;;
69951;SDS011;60406;48.408;13.392;2023-08-21T02:58:12;20.08;;;16.08;;
69951;SDS011;60406;48.408;13.392;2023-08-21T03:03:13;18.30;;;12.75;;
69951;SDS011;60406;48.408;13.392;2023-08-21T03:08:14;16.20;;;13.88;;
69951;SDS011;60406;48.408;13.392;2023-08-21T03:13:14;16.10;;;12.10;;
69951;SDS011;60406;48.408;13.392;2023-08-21T03:18:15;15.20;;;12.57;;
69951;SDS011;60406;48.408;13.392;2023-08-21T03:23:16;15.45;;;12.85;;
69951;SDS011;60406;48.408;13.392;2023-08-21T03:28:17;17.42;;;14.30;;
69951;SDS011;60406;48.408;13.392;2023-08-21T03:33:18;15.50;;;13.90;;
69951;SDS011;60406;48.408;13.392;2023-08-21T03:38:19;15.52;;;13.93;;
69951;SDS011;60406;48.408;13.392;2023-08-21T03:43:20;15.65;;;14.05;;
69951;SDS011;60406;48.408;13.392;2023-08-21T03:48:20;18.15;;;13.77;;
69951;SDS011;60406;48.408;13.392;2023-08-21T03:53:21;15.25;;;12.82;;
69951;SDS011;60406;48.408;13.392;2023-08-21T03:58:22;14.88;;;13.40;;
69951;SDS011;60406;48.408;13.392;2023-08-21T04:03:23;12.60;;;10.32;;
69951;SDS011;60406;48.408;13.392;2023-08-21T04:08:24;13.32;;;10.45;;
69951;SDS011;60406;48.408;13.392;2023-08-21T04:13:25;13.45;;;11.95;;
69951;SDS011;60406;48.408;13.392;2023-08-21T04:18:26;14.60;;;12.95;;
69951;SDS011;60406;48.408;13.392;2023-08-21T04:23:27;13.60;;;12.30;;
69951;SDS011;60406;48.408;13.392;2023-08-21T04:28:30;20.30;;;14.70;;
69951;SDS011;60406;48.408;13.392;2023-08-21T04:33:34;16.40;;;14.70;;
69951;SDS011;60406;48.408;13.392;2023-08-21T04:38:34;18.35;;;15.68;;
69951;SDS011;60406;48.408;13.392;2023-08-21T04:43:37;16.05;;;14.10;;
69951;SDS011;60406;48.408;13.392;2023-08-21T04:48:38;16.02;;;14.32;;
69951;SDS011;60406;48.408;13.392;2023-08-21T04:53:39;15.27;;;13.50;;
69951;SDS011;60406;48.408;13.392;2023-08-21T04:58:40;18.58;;;13.45;;
69951;SDS011;60406;48.408;13.392;2023-08-21T05:03:40;15.68;;;14.05;;
69951;SDS011;60406;48.408;13.392;2023-08-21T05:08:41;15.63;;;13.90;;
69951;SDS011;60406;48.408;13.392;2023-08-21T05:13:42;17.45;;;15.30;;
69951;SDS011;60406;48.408;13.392;2023-08-21T05:18:43;15.45;;;12.88;;
69951;SDS011;60406;48.408;13.392;2023-08-21T05:23:44;17.48;;;14.93;;
69951;SDS011;60406;48.408;13.392;2023-08-21T05:28:45;16.65;;;14.95;;
69951;SDS011;60406;48.408;13.392;2023-08-21T05:33:46;19.10;;;15.32;;
69951;SDS011;60406;48.408;13.392;2023-08-21T05:38:47;23.45;;;17.00;;
69951;SDS011;60406;48.408;13.392;2023-08-21T05:43:47;20.05;;;16.30;;
69951;SDS011;60406;48.408;13.392;2023-08-21T05:48:48;19.73;;;15.60;;
69951;SDS011;60406;48.408;13.392;2023-08-21T05:53:49;18.98;;;16.77;;
69951;SDS011;60406;48.408;13.392;2023-08-21T05:58:50;18.30;;;16.40;;
69951;SDS011;60406;48.408;13.392;2023-08-21T06:03:51;19.02;;;17.13;;
69951;SDS011;60406;48.408;13.392;2023-08-21T06:08:52;20.05;;;17.95;;
69951;SDS011;60406;48.408;13.392;2023-08-21T06:13:53;22.17;;;18.70;;
69951;SDS011;60406;48.408;13.392;2023-08-21T06:18:54;19.50;;;17.58;;
69951;SDS011;60406;48.408;13.392;2023-08-21T06:23:54;22.70;;;20.33;;
69951;SDS011;60406;48.408;13.392;2023-08-21T06:28:55;21.48;;;19.38;;
69951;SDS011;60406;48.408;13.392;2023-08-21T06:33:56;20.33;;;18.15;;
69951;SDS011;60406;48.408;13.392;2023-08-21T06:38:57;21.20;;;18.77;;
69951;SDS011;60406;48.408;13.392;2023-08-21T06:43:58;22.33;;;19.83;;
69951;SDS011;60406;48.408;13.392;2023-08-21T06:48:59;20.98;;;18.67;;
69951;SDS011;60406;48.408;13.392;2023-08-21T06:54:00;21.55;;;19.35;;
69951;SDS011;60406;48.408;13.392;2023-08-21T06:59:00;20.13;;;18.23;;
69951;SDS011;60406;48.408;13.392;2023-08-21T07:04:01;24.88;;;18.45;;
69951;SDS011;60406;48.408;13.392;2023-08-21T07:09:02;23.70;;;19.23;;
69951;SDS011;60406;48.408;13.392;2023-08-21T07:14:03;21.52;;;19.33;;
69951;SDS011;60406;48.408;13.392;2023-08-21T07:19:04;19.80;;;17.85;;
69951;SDS011;60406;48.408;13.392;2023-08-21T07:24:05;23.20;;;18.77;;
69951;SDS011;60406;48.408;13.392;2023-08-21T07:29:06;22.15;;;19.90;;
69951;SDS011;60406;48.408;13.392;2023-08-21T07:34:07;22.35;;;19.67;;
69951;SDS011;60406;48.408;13.392;2023-08-21T07:39:08;21.58;;;19.40;;
69951;SDS011;60406;48.408;13.392;2023-08-21T07:44:09;21.20;;;18.98;;
69951;SDS011;60406;48.408;13.392;2023-08-21T07:49:10;22.23;;;20.08;;
69951;SDS011;60406;48.408;13.392;2023-08-21T07:54:11;21.20;;;19.15;;
69951;SDS011;60406;48.408;13.392;2023-08-21T07:59:11;19.15;;;17.25;;
69951;SDS011;60406;48.408;13.392;2023-08-21T08:04:12;20.48;;;18.38;;
69951;SDS011;60406;48.408;13.392;2023-08-21T08:09:13;18.05;;;16.15;;
69951;SDS011;60406;48.408;13.392;2023-08-21T08:14:14;22.15;;;19.15;;
69951;SDS011;60406;48.408;13.392;2023-08-21T08:19:15;20.00;;;17.90;;
69951;SDS011;60406;48.408;13.392;2023-08-21T08:24:16;19.15;;;17.15;;
69951;SDS011;60406;48.408;13.392;2023-08-21T08:34:34;18.70;;;16.33;;
69951;SDS011;60406;48.408;13.392;2023-08-21T08:39:35;18.05;;;15.68;;
69951;SDS011;60406;48.408;13.392;2023-08-21T08:44:36;18.90;;;17.00;;
69951;SDS011;60406;48.408;13.392;2023-08-21T08:49:37;20.73;;;17.10;;
69951;SDS011;60406;48.408;13.392;2023-08-21T08:54:41;18.33;;;16.05;;
69951;SDS011;60406;48.408;13.392;2023-08-21T08:59:42;17.83;;;14.60;;
69951;SDS011;60406;48.408;13.392;2023-08-21T09:04:44;17.00;;;14.85;;
69951;SDS011;60406;48.408;13.392;2023-08-21T09:09:46;15.60;;;14.10;;
69951;SDS011;60406;48.408;13.392;2023-08-21T09:14:47;16.00;;;14.50;;
69951;SDS011;60406;48.408;13.392;2023-08-21T09:19:48;13.73;;;12.52;;
69951;SDS011;60406;48.408;13.392;2023-08-21T09:30:08;13.13;;;11.88;;
69951;SDS011;60406;48.408;13.392;2023-08-21T09:35:13;13.02;;;11.68;;
69951;SDS011;60406;48.408;13.392;2023-08-21T09:40:17;12.07;;;10.95;;
69951;SDS011;60406;48.408;13.392;2023-08-21T09:45:22;13.55;;;11.02;;
69951;SDS011;60406;48.408;13.392;2023-08-21T09:50:24;13.52;;;10.80;;
69951;SDS011;60406;48.408;13.392;2023-08-21T09:55:26;13.00;;;11.07;;
69951;SDS011;60406;48.408;13.392;2023-08-21T10:00:28;14.32;;;10.98;;
69951;SDS011;60406;48.408;13.392;2023-08-21T10:05:31;11.52;;;10.38;;
69951;SDS011;60406;48.408;13.392;2023-08-21T10:10:33;11.20;;;10.10;;
69951;SDS011;60406;48.408;13.392;2023-08-21T10:15:35;13.30;;;9.25;;
69951;SDS011;60406;48.408;13.392;2023-08-21T10:20:37;10.80;;;9.18;;
69951;SDS011;60406;48.408;13.392;2023-08-21T10:25:41;11.47;;;10.40;;
69951;SDS011;60406;48.408;13.392;2023-08-21T10:30:42;12.30;;;9.57;;
69951;SDS011;60406;48.408;13.392;2023-08-21T10:35:43;11.07;;;9.98;;
69951;SDS011;60406;48.408;13.392;2023-08-21T10:46:07;10.32;;;9.43;;
69951;SDS011;60406;48.408;13.392;2023-08-21T10:51:08;10.80;;;9.35;;
69951;SDS011;60406;48.408;13.392;2023-08-21T10:56:09;10.27;;;9.27;;
69951;SDS011;60406;48.408;13.392;2023-08-21T11:01:10;10.63;;;9.55;;
69951;SDS011;60406;48.408;13.392;2023-08-21T11:06:13;10.32;;;9.32;;
69951;SDS011;60406;48.408;13.392;2023-08-21T11:11:14;11.20;;;9.23;;
69951;SDS011;60406;48.408;13.392;2023-08-21T11:16:17;10.18;;;9.35;;
69951;SDS011;60406;48.408;13.392;2023-08-21T11:21:18;9.43;;;8.43;;
69951;SDS011;60406;48.408;13.392;2023-08-21T11:26:18;8.50;;;7.68;;
69951;SDS011;60406;48.408;13.392;2023-08-21T11:36:21;8.93;;;8.10;;
69951;SDS011;60406;48.408;13.392;2023-08-21T11:41:22;10.55;;;7.53;;
69951;SDS011;60406;48.408;13.392;2023-08-21T11:46:23;7.85;;;7.05;;
69951;SDS011;60406;48.408;13.392;2023-08-21T11:51:24;8.00;;;7.37;;
69951;SDS011;60406;48.408;13.392;2023-08-21T11:56:27;7.20;;;6.50;;
69951;SDS011;60406;48.408;13.392;2023-08-21T12:01:28;7.82;;;6.13;;
69951;SDS011;60406;48.408;13.392;2023-08-21T12:06:33;6.57;;;5.93;;
69951;SDS011;60406;48.408;13.392;2023-08-21T12:11:34;6.28;;;5.65;;
69951;SDS011;60406;48.408;13.392;2023-08-21T12:16:35;7.80;;;5.22;;
69951;SDS011;60406;48.408;13.392;2023-08-21T12:21:35;5.40;;;4.88;;
69951;SDS011;60406;48.408;13.392;2023-08-21T12:26:36;5.05;;;4.53;;
69951;SDS011;60406;48.408;13.392;2023-08-21T12:31:37;5.97;;;5.43;;
69951;SDS011;60406;48.408;13.392;2023-08-21T12:36:38;5.55;;;5.05;;
69951;SDS011;60406;48.408;13.392;2023-08-21T12:41:39;5.07;;;4.68;;
69951;SDS011;60406;48.408;13.392;2023-08-21T12:46:40;5.25;;;4.82;;
69951;SDS011;60406;48.408;13.392;2023-08-21T12:51:41;5.10;;;4.50;;
69951;SDS011;60406;48.408;13.392;2023-08-21T12:56:42;5.20;;;4.80;;
69951;SDS011;60406;48.408;13.392;2023-08-21T13:01:43;6.13;;;4.88;;
69951;SDS011;60406;48.408;13.392;2023-08-21T13:06:44;5.05;;;4.45;;
69951;SDS011;60406;48.408;13.392;2023-08-21T13:11:44;5.32;;;4.90;;
69951;SDS011;60406;48.408;13.392;2023-08-21T13:16:45;4.80;;;4.40;;
69951;SDS011;60406;48.408;13.392;2023-08-21T13:21:46;5.40;;;4.90;;
69951;SDS011;60406;48.408;13.392;2023-08-21T13:26:47;5.97;;;4.60;;
69951;SDS011;60406;48.408;13.392;2023-08-21T13:31:48;6.80;;;4.90;;
69951;SDS011;60406;48.408;13.392;2023-08-21T13:36:49;6.68;;;4.88;;
69951;SDS011;60406;48.408;13.392;2023-08-21T13:41:50;4.78;;;4.38;;
69951;SDS011;60406;48.408;13.392;2023-08-21T13:46:50;5.07;;;4.53;;
69951;SDS011;60406;48.408;13.392;2023-08-21T13:51:51;6.80;;;4.50;;
69951;SDS011;60406;48.408;13.392;2023-08-21T13:56:52;5.18;;;4.40;;
69951;SDS011;60406;48.408;13.392;2023-08-21T14:01:53;5.45;;;3.60;;
69951;SDS011;60406;48.408;13.392;2023-08-21T14:06:54;3.83;;;3.53;;
69951;SDS011;60406;48.408;13.392;2023-08-21T14:11:55;5.30;;;3.95;;
69951;SDS011;60406;48.408;13.392;2023-08-21T14:16:56;6.70;;;3.95;;
69951;SDS011;60406;48.408;13.392;2023-08-21T14:21:57;3.70;;;3.40;;
69951;SDS011;60406;48.408;13.392;2023-08-21T14:26:58;3.85;;;3.53;;
69951;SDS011;60406;48.408;13.392;2023-08-21T14:31:59;9.10;;;3.45;;
69951;SDS011;60406;48.408;13.392;2023-08-21T14:37:00;3.72;;;3.42;;
69951;SDS011;60406;48.408;13.392;2023-08-21T14:42:01;4.82;;;3.70;;
69951;SDS011;60406;48.408;13.392;2023-08-21T14:47:02;4.32;;;3.90;;
69951;SDS011;60406;48.408;13.392;2023-08-21T14:52:03;4.30;;;3.63;;
69951;SDS011;60406;48.408;13.392;2023-08-21T14:57:04;5.30;;;3.70;;
69951;SDS011;60406;48.408;13.392;2023-08-21T15:02:05;6.90;;;4.30;;
69951;SDS011;60406;48.408;13.392;2023-08-21T15:07:06;6.57;;;4.40;;
69951;SDS011;60406;48.408;13.392;2023-08-21T15:12:07;5.35;;;4.95;;
69951;SDS011;60406;48.408;13.392;2023-08-21T15:22:09;7.43;;;4.80;;
69951;SDS011;60406;48.408;13.392;2023-08-21T15:27:10;5.33;;;4.83;;
69951;SDS011;60406;48.408;13.392;2023-08-21T15:32:19;5.68;;;4.63;;
69951;SDS011;60406;48.408;13.392;2023-08-21T15:37:20;6.85;;;4.50;;
69951;SDS011;60406;48.408;13.392;2023-08-21T15:42:21;8.00;;;4.70;;
69951;SDS011;60406;48.408;13.392;2023-08-21T15:47:22;4.70;;;4.30;;
69951;SDS011;60406;48.408;13.392;2023-08-21T15:52:22;5.28;;;4.70;;
69951;SDS011;60406;48.408;13.392;2023-08-21T15:57:23;6.78;;;4.75;;
69951;SDS011;60406;48.408;13.392;2023-08-21T16:02:24;6.13;;;4.90;;
69951;SDS011;60406;48.408;13.392;2023-08-21T16:07:25;5.05;;;4.65;;
69951;SDS011;60406;48.408;13.392;2023-08-21T16:12:26;5.15;;;4.55;;
69951;SDS011;60406;48.408;13.392;2023-08-21T16:17:27;6.43;;;5.00;;
69951;SDS011;60406;48.408;13.392;2023-08-21T16:22:28;6.45;;;4.43;;
69951;SDS011;60406;48.408;13.392;2023-08-21T16:27:29;5.20;;;4.57;;
69951;SDS011;60406;48.408;13.392;2023-08-21T16:32:30;5.93;;;4.10;;
69951;SDS011;60406;48.408;13.392;2023-08-21T16:37:30;8.65;;;4.60;;
69951;SDS011;60406;48.408;13.392;2023-08-21T16:42:31;6.70;;;5.03;;
69951;SDS011;60406;48.408;13.392;2023-08-21T16:47:32;6.63;;;5.53;;
69951;SDS011;60406;48.408;13.392;2023-08-21T16:52:33;10.48;;;5.15;;
69951;SDS011;60406;48.408;13.392;2023-08-21T16:57:34;6.00;;;5.50;;
69951;SDS011;60406;48.408;13.392;2023-08-21T17:02:38;5.80;;;5.23;;
69951;SDS011;60406;48.408;13.392;2023-08-21T17:07:39;8.82;;;5.38;;
69951;SDS011;60406;48.408;13.392;2023-08-21T17:12:40;9.70;;;5.53;;
69951;SDS011;60406;48.408;13.392;2023-08-21T17:17:41;6.30;;;5.53;;
69951;SDS011;60406;48.408;13.392;2023-08-21T17:22:42;7.85;;;5.13;;
69951;SDS011;60406;48.408;13.392;2023-08-21T17:27:43;4.85;;;4.35;;
69951;SDS011;60406;48.408;13.392;2023-08-21T17:32:44;6.10;;;5.50;;
69951;SDS011;60406;48.408;13.392;2023-08-21T17:37:45;6.30;;;5.32;;
69951;SDS011;60406;48.408;13.392;2023-08-21T17:42:46;7.05;;;5.38;;
69951;SDS011;60406;48.408;13.392;2023-08-21T17:47:47;8.90;;;5.75;;
69951;SDS011;60406;48.408;13.392;2023-08-21T17:52:48;7.30;;;6.53;;
69951;SDS011;60406;48.408;13.392;2023-08-21T17:57:48;7.13;;;6.40;;
69951;SDS011;60406;48.408;13.392;2023-08-21T18:02:49;6.47;;;5.88;;
69951;SDS011;60406;48.408;13.392;2023-08-21T18:07:50;7.38;;;6.53;;
69951;SDS011;60406;48.408;13.392;2023-08-21T18:12:51;8.23;;;6.35;;
69951;SDS011;60406;48.408;13.392;2023-08-21T18:17:52;7.10;;;6.40;;
69951;SDS011;60406;48.408;13.392;2023-08-21T18:22:53;11.07;;;7.50;;
69951;SDS011;60406;48.408;13.392;2023-08-21T18:27:54;10.80;;;8.55;;
69951;SDS011;60406;48.408;13.392;2023-08-21T18:32:54;10.45;;;7.00;;
69951;SDS011;60406;48.408;13.392;2023-08-21T18:37:55;11.02;;;6.65;;
69951;SDS011;60406;48.408;13.392;2023-08-21T18:42:56;7.68;;;6.70;;
69951;SDS011;60406;48.408;13.392;2023-08-21T18:47:57;10.18;;;8.27;;
69951;SDS011;60406;48.408;13.392;2023-08-21T18:52:58;8.23;;;7.03;;
69951;SDS011;60406;48.408;13.392;2023-08-21T18:57:59;7.80;;;7.10;;
69951;SDS011;60406;48.408;13.392;2023-08-21T19:03:00;9.50;;;7.18;;
69951;SDS011;60406;48.408;13.392;2023-08-21T19:08:01;7.60;;;6.90;;
69951;SDS011;60406;48.408;13.392;2023-08-21T19:13:02;12.15;;;7.32;;
69951;SDS011;60406;48.408;13.392;2023-08-21T19:18:03;9.68;;;8.68;;
69951;SDS011;60406;48.408;13.392;2023-08-21T19:23:04;9.77;;;8.77;;
69951;SDS011;60406;48.408;13.392;2023-08-21T19:28:05;11.18;;;9.02;;
69951;SDS011;60406;48.408;13.392;2023-08-21T19:33:05;11.43;;;10.02;;
69951;SDS011;60406;48.408;13.392;2023-08-21T19:38:06;14.95;;;9.77;;
69951;SDS011;60406;48.408;13.392;2023-08-21T19:43:07;11.43;;;8.80;;
69951;SDS011;60406;48.408;13.392;2023-08-21T19:48:08;12.27;;;8.82;;
69951;SDS011;60406;48.408;13.392;2023-08-21T19:53:09;12.07;;;8.75;;
69951;SDS011;60406;48.408;13.392;2023-08-21T19:58:10;11.25;;;10.15;;
69951;SDS011;60406;48.408;13.392;2023-08-21T20:03:11;14.02;;;9.52;;
69951;SDS011;60406;48.408;13.392;2023-08-21T20:08:13;9.35;;;8.50;;
69951;SDS011;60406;48.408;13.392;2023-08-21T20:13:14;10.50;;;9.37;;
69951;SDS011;60406;48.408;13.392;2023-08-21T20:18:15;10.45;;;9.45;;
69951;SDS011;60406;48.408;13.392;2023-08-21T20:23:16;11.35;;;8.35;;
69951;SDS011;60406;48.408;13.392;2023-08-21T20:28:17;12.73;;;9.18;;
69951;SDS011;60406;48.408;13.392;2023-08-21T20:33:18;10.48;;;9.00;;
69951;SDS011;60406;48.408;13.392;2023-08-21T20:38:19;10.45;;;9.45;;
69951;SDS011;60406;48.408;13.392;2023-08-21T20:43:20;14.70;;;9.95;;
69951;SDS011;60406;48.408;13.392;2023-08-21T20:48:22;13.48;;;10.23;;
69951;SDS011;60406;48.408;13.392;2023-08-21T20:53:23;10.00;;;9.00;;
69951;SDS011;60406;48.408;13.392;2023-08-21T20:58:25;12.15;;;10.85;;
69951;SDS011;60406;48.408;13.392;2023-08-21T21:03:26;12.00;;;10.85;;
69951;SDS011;60406;48.408;13.392;2023-08-21T21:08:26;11.95;;;10.80;;
69951;SDS011;60406;48.408;13.392;2023-08-21T21:13:27;10.80;;;9.65;;
69951;SDS011;60406;48.408;13.392;2023-08-21T21:18:28;11.45;;;10.30;;
69951;SDS011;60406;48.408;13.392;2023-08-21T21:23:29;15.90;;;10.27;;
69951;SDS011;60406;48.408;13.392;2023-08-21T21:28:30;13.05;;;9.23;;
69951;SDS011;60406;48.408;13.392;2023-08-21T21:33:31;11.55;;;9.98;;
69951;SDS011;60406;48.408;13.392;2023-08-21T21:38:32;11.27;;;10.07;;
69951;SDS011;60406;48.408;13.392;2023-08-21T21:43:33;10.68;;;9.73;;
69951;SDS011;60406;48.408;13.392;2023-08-21T21:48:33;11.05;;;9.95;;
69951;SDS011;60406;48.408;13.392;2023-08-21T21:53:34;10.05;;;9.05;;
69951;SDS011;60406;48.408;13.392;2023-08-21T21:58:35;12.85;;;10.05;;
69951;SDS011;60406;48.408;13.392;2023-08-21T22:03:36;14.65;;;9.18;;
69951;SDS011;60406;48.408;13.392;2023-08-21T22:08:37;12.35;;;10.13;;
69951;SDS011;60406;48.408;13.392;2023-08-21T22:13:38;12.95;;;10.02;;
69951;SDS011;60406;48.408;13.392;2023-08-21T22:18:39;14.40;;;10.57;;
69951;SDS011;60406;48.408;13.392;2023-08-21T22:23:40;13.52;;;11.50;;
69951;SDS011;60406;48.408;13.392;2023-08-21T22:28:41;15.07;;;11.40;;
69951;SDS011;60406;48.408;13.392;2023-08-21T22:33:42;13.18;;;11.63;;
69951;SDS011;60406;48.408;13.392;2023-08-21T22:38:42;12.75;;;10.68;;
69951;SDS011;60406;48.408;13.392;2023-08-21T22:43:43;12.50;;;11.23;;
69951;SDS011;60406;48.408;13.392;2023-08-21T22:48:44;12.98;;;10.68;;
69951;SDS011;60406;48.408;13.392;2023-08-21T22:53:45;13.13;;;11.50;;
69951;SDS011;60406;48.408;13.392;2023-08-21T22:58:46;11.05;;;9.95;;
69951;SDS011;60406;48.408;13.392;2023-08-21T23:03:47;16.83;;;12.00;;
69951;SDS011;60406;48.408;13.392;2023-08-21T23:08:48;19.00;;;12.73;;
69951;SDS011;60406;48.408;13.392;2023-08-21T23:13:48;12.68;;;10.95;;
69951;SDS011;60406;48.408;13.392;2023-08-21T23:18:49;12.68;;;11.18;;
69951;SDS011;60406;48.408;13.392;2023-08-21T23:23:50;15.63;;;11.27;;
69951;SDS011;60406;48.408;13.392;2023-08-21T23:28:51;12.77;;;11.00;;
69951;SDS011;60406;48.408;13.392;2023-08-21T23:33:52;12.80;;;11.48;;
69951;SDS011;60406;48.408;13.392;2023-08-21T23:38:54;14.63;;;11.65;;
69951;SDS011;60406;48.408;13.392;2023-08-21T23:43:54;13.65;;;10.95;;
69951;SDS011;60406;48.408;13.392;2023-08-21T23:48:55;12.07;;;10.35;;
69951;SDS011;60406;48.408;13.392;2023-08-21T23:53:56;14.75;;;10.35;;
69951;SDS011;60406;48.408;13.392;2023-08-21T23:58:57;12.30;;;11.10;;
